QTR295 LIMJ-EGKK
Flight info
| Callsign | QTR295 |
|---|---|
| Flight time | 1h 52m |
| Altitude | 20000 |
| Route | LAGEN Q712 TESTO/N0485F400 DCT DEVOX DCT VOG DCT DESIP DCT PEPAG DCT ABESI DCT UTAVO DCT ELMUR DCT RIPUS DCT DITON DCT HOC DCT LUL DCT RLP DCT ROTSI DCT KOTUN DCT NINAL DCT KESAX DCT KUNAV |
| Aircraft | A35K/H-SDE2E3GHIJ3J4J5LM1ORWXY/LB1D1 |
Departure
| Time | 2026-05-06 15:59 |
|---|---|
| Airport | Genoa Cristoforo Colombo Airport (LIMJ) |
Arrival
| Time | 2026-05-06 17:51 |
|---|---|
| Airport | London Gatwick Airport (EGKK) |
| Time | Latitude | Longitude | Altitude | Speed | Heading |
|---|---|---|---|---|---|
| 2026-05-06 15:30 | 44.41482 | 8.84582 | 18 ft | 0 kts | 322° |
| 2026-05-06 15:47 | 44.41475 | 8.84590 | 16 ft | 3 kts | 317° |
| 2026-05-06 15:47 | 44.41463 | 8.84610 | 17 ft | 3 kts | 284° |
| 2026-05-06 15:47 | 44.41462 | 8.84635 | 19 ft | 3 kts | 251° |
| 2026-05-06 15:47 | 44.41468 | 8.84655 | 20 ft | 0 kts | 222° |
| 2026-05-06 15:50 | 44.41466 | 8.84653 | 20 ft | 1 kts | 211° |
| 2026-05-06 15:50 | 44.41459 | 8.84654 | 20 ft | 2 kts | 185° |
| 2026-05-06 15:50 | 44.41436 | 8.84661 | 17 ft | 5 kts | 159° |
| 2026-05-06 15:50 | 44.41409 | 8.84705 | 16 ft | 8 kts | 118° |
| 2026-05-06 15:51 | 44.41386 | 8.84791 | 16 ft | 11 kts | 107° |
| 2026-05-06 15:51 | 44.41378 | 8.84830 | 16 ft | 0 kts | 107° |
| 2026-05-06 15:51 | 44.41375 | 8.84842 | 16 ft | 3 kts | 106° |
| 2026-05-06 15:51 | 44.41374 | 8.84849 | 16 ft | 0 kts | 105° |
| 2026-05-06 15:52 | 44.41372 | 8.84858 | 16 ft | 3 kts | 105° |
| 2026-05-06 15:52 | 44.41369 | 8.84874 | 17 ft | 0 kts | 105° |
| 2026-05-06 15:52 | 44.41368 | 8.84878 | 17 ft | 2 kts | 105° |
| 2026-05-06 15:52 | 44.41356 | 8.84944 | 18 ft | 14 kts | 104° |
| 2026-05-06 15:53 | 44.41353 | 8.84961 | 16 ft | 3 kts | 104° |
| 2026-05-06 15:53 | 44.41341 | 8.85029 | 17 ft | 11 kts | 103° |
| 2026-05-06 15:53 | 44.41320 | 8.85145 | 15 ft | 11 kts | 104° |
| 2026-05-06 15:53 | 44.41277 | 8.85247 | 15 ft | 12 kts | 148° |
| 2026-05-06 15:54 | 44.41184 | 8.85264 | 15 ft | 15 kts | 187° |
| 2026-05-06 15:54 | 44.41121 | 8.85242 | 15 ft | 0 kts | 198° |
| 2026-05-06 15:55 | 44.41110 | 8.85237 | 15 ft | 4 kts | 199° |
| 2026-05-06 15:55 | 44.41066 | 8.85220 | 14 ft | 9 kts | 195° |
| 2026-05-06 15:55 | 44.40998 | 8.85252 | 13 ft | 12 kts | 129° |
| 2026-05-06 15:55 | 44.40964 | 8.85368 | 14 ft | 14 kts | 107° |
| 2026-05-06 15:56 | 44.40936 | 8.85511 | 15 ft | 17 kts | 105° |
| 2026-05-06 15:56 | 44.40905 | 8.85673 | 17 ft | 14 kts | 105° |
| 2026-05-06 15:56 | 44.40878 | 8.85816 | 19 ft | 17 kts | 104° |
| 2026-05-06 15:56 | 44.40868 | 8.85981 | 18 ft | 14 kts | 83° |
| 2026-05-06 15:57 | 44.40844 | 8.86029 | 17 ft | 2 kts | 198° |
| 2026-05-06 15:57 | 44.40841 | 8.86016 | 16 ft | 1 kts | 250° |
| 2026-05-06 15:57 | 44.40842 | 8.86010 | 16 ft | 2 kts | 270° |
| 2026-05-06 15:57 | 44.40868 | 8.85853 | 17 ft | 12 kts | 285° |
| 2026-05-06 15:58 | 44.40879 | 8.85796 | 20 ft | 0 kts | 285° |
| 2026-05-06 15:58 | 44.40901 | 8.85685 | 18 ft | 44 kts | 285° |
| 2026-05-06 15:58 | 44.41057 | 8.84891 | 14 ft | 122 kts | 285° |
| 2026-05-06 15:58 | 44.41326 | 8.83480 | 226 ft | 166 kts | 285° |
| 2026-05-06 15:59 | 44.41523 | 8.81888 | 981 ft | 166 kts | 267° |
| 2026-05-06 15:59 | 44.41090 | 8.80384 | 1670 ft | 181 kts | 228° |
| 2026-05-06 15:59 | 44.39928 | 8.79678 | 2313 ft | 190 kts | 181° |
| 2026-05-06 15:59 | 44.38585 | 8.79948 | 2858 ft | 200 kts | 166° |
| 2026-05-06 16:00 | 44.37218 | 8.80439 | 3538 ft | 204 kts | 166° |
| 2026-05-06 16:00 | 44.35831 | 8.80926 | 4254 ft | 207 kts | 167° |
| 2026-05-06 16:00 | 44.34423 | 8.81391 | 4971 ft | 209 kts | 167° |
| 2026-05-06 16:00 | 44.32985 | 8.81804 | 5584 ft | 217 kts | 174° |
| 2026-05-06 16:01 | 44.31398 | 8.81759 | 5902 ft | 241 kts | 185° |
| 2026-05-06 16:01 | 44.29651 | 8.81537 | 6248 ft | 262 kts | 185° |
| 2026-05-06 16:01 | 44.27801 | 8.81340 | 6882 ft | 270 kts | 184° |
| 2026-05-06 16:01 | 44.25910 | 8.81177 | 7627 ft | 274 kts | 184° |
| 2026-05-06 16:02 | 44.23991 | 8.81034 | 8385 ft | 278 kts | 183° |
| 2026-05-06 16:02 | 44.22048 | 8.80901 | 9148 ft | 281 kts | 183° |
| 2026-05-06 16:02 | 44.20079 | 8.80773 | 9911 ft | 285 kts | 183° |
| 2026-05-06 16:02 | 44.18078 | 8.80647 | 10528 ft | 295 kts | 183° |
| 2026-05-06 16:03 | 44.15961 | 8.80514 | 10839 ft | 314 kts | 183° |
| 2026-05-06 16:03 | 44.13711 | 8.80361 | 11136 ft | 333 kts | 184° |
| 2026-05-06 16:03 | 44.11396 | 8.79679 | 11386 ft | 350 kts | 202° |
| 2026-05-06 16:03 | 44.09376 | 8.77744 | 11792 ft | 359 kts | 227° |
| 2026-05-06 16:04 | 44.08070 | 8.74774 | 12360 ft | 364 kts | 251° |
| 2026-05-06 16:04 | 44.07703 | 8.71301 | 12958 ft | 368 kts | 273° |
| 2026-05-06 16:04 | 44.08333 | 8.67858 | 13537 ft | 371 kts | 296° |
| 2026-05-06 16:04 | 44.09871 | 8.64976 | 14107 ft | 375 kts | 317° |
| 2026-05-06 16:05 | 44.12095 | 8.63085 | 14673 ft | 379 kts | 339° |
| 2026-05-06 16:05 | 44.14690 | 8.62462 | 15243 ft | 383 kts | 1° |
| 2026-05-06 16:05 | 44.17300 | 8.63205 | 15795 ft | 387 kts | 22° |
| 2026-05-06 16:05 | 44.19565 | 8.65223 | 16350 ft | 391 kts | 43° |
| 2026-05-06 16:06 | 44.21186 | 8.68258 | 16891 ft | 394 kts | 64° |
| 2026-05-06 16:06 | 44.22168 | 8.71838 | 17398 ft | 397 kts | 68° |
| 2026-05-06 16:06 | 44.23693 | 8.75045 | 17885 ft | 400 kts | 45° |
| 2026-05-06 16:06 | 44.25931 | 8.77336 | 18398 ft | 402 kts | 26° |
| 2026-05-06 16:07 | 44.28611 | 8.78442 | 18890 ft | 405 kts | 6° |
| 2026-05-06 16:07 | 44.31420 | 8.78249 | 19367 ft | 407 kts | 347° |
| 2026-05-06 16:07 | 44.34055 | 8.76819 | 19808 ft | 409 kts | 329° |
| 2026-05-06 16:07 | 44.36262 | 8.74321 | 19982 ft | 415 kts | 311° |
| 2026-05-06 16:08 | 44.37865 | 8.70878 | 19994 ft | 429 kts | 294° |
| 2026-05-06 16:08 | 44.38645 | 8.66846 | 19997 ft | 433 kts | 276° |
| 2026-05-06 16:08 | 44.38713 | 8.62682 | 19998 ft | 434 kts | 270° |
| 2026-05-06 16:08 | 44.39193 | 8.58534 | 19999 ft | 435 kts | 288° |
| 2026-05-06 16:09 | 44.40542 | 8.54769 | 20000 ft | 436 kts | 305° |
| 2026-05-06 16:09 | 44.42656 | 8.51715 | 19998 ft | 441 kts | 323° |
| 2026-05-06 16:09 | 44.45350 | 8.49642 | 19997 ft | 446 kts | 340° |
| 2026-05-06 16:09 | 44.48386 | 8.48739 | 20000 ft | 447 kts | 356° |
| 2026-05-06 16:10 | 44.51469 | 8.49100 | 20000 ft | 447 kts | 13° |
| 2026-05-06 16:10 | 44.54351 | 8.50694 | 19998 ft | 447 kts | 30° |
| 2026-05-06 16:10 | 44.56786 | 8.53391 | 20000 ft | 448 kts | 47° |
| 2026-05-06 16:10 | 44.58570 | 8.56962 | 20000 ft | 448 kts | 63° |
| 2026-05-06 16:11 | 44.59873 | 8.60941 | 19999 ft | 448 kts | 65° |
| 2026-05-06 16:11 | 44.61359 | 8.64780 | 19998 ft | 448 kts | 57° |
| 2026-05-06 16:11 | 44.63274 | 8.68216 | 20000 ft | 447 kts | 46° |
| 2026-05-06 16:11 | 44.65565 | 8.71163 | 20000 ft | 447 kts | 38° |
| 2026-05-06 16:12 | 44.68092 | 8.73707 | 20001 ft | 447 kts | 33° |
| 2026-05-06 16:12 | 44.70735 | 8.75991 | 20001 ft | 447 kts | 30° |
| 2026-05-06 16:12 | 44.73436 | 8.78157 | 19999 ft | 447 kts | 29° |
| 2026-05-06 16:12 | 44.76153 | 8.80297 | 20071 ft | 451 kts | 29° |
| 2026-05-06 16:13 | 44.78905 | 8.82483 | 20682 ft | 456 kts | 29° |
| 2026-05-06 16:13 | 44.81638 | 8.84690 | 21876 ft | 448 kts | 30° |
| 2026-05-06 16:13 | 44.84308 | 8.86877 | 23127 ft | 440 kts | 30° |
| 2026-05-06 16:13 | 44.86927 | 8.89044 | 24321 ft | 432 kts | 30° |
| 2026-05-06 16:14 | 44.89493 | 8.91180 | 25502 ft | 424 kts | 30° |
| 2026-05-06 16:14 | 44.92003 | 8.93277 | 26625 ft | 415 kts | 30° |
| 2026-05-06 16:14 | 44.94476 | 8.95321 | 27570 ft | 411 kts | 28° |
| 2026-05-06 16:14 | 44.97136 | 8.96918 | 27966 ft | 421 kts | 16° |
| 2026-05-06 16:15 | 45.00015 | 8.97896 | 28233 ft | 432 kts | 11° |
| 2026-05-06 16:15 | 45.03014 | 8.98680 | 28484 ft | 444 kts | 9° |
| 2026-05-06 16:15 | 45.06112 | 8.99374 | 28738 ft | 456 kts | 8° |
| 2026-05-06 16:15 | 45.09289 | 9.00042 | 29005 ft | 468 kts | 8° |
| 2026-05-06 16:16 | 45.12546 | 9.00726 | 29259 ft | 479 kts | 8° |
| 2026-05-06 16:16 | 45.15876 | 9.01441 | 29510 ft | 489 kts | 8° |
| 2026-05-06 16:16 | 45.19266 | 9.02187 | 29802 ft | 497 kts | 8° |
| 2026-05-06 16:16 | 45.22690 | 9.02956 | 30343 ft | 499 kts | 9° |
| 2026-05-06 16:17 | 45.26114 | 9.03734 | 30990 ft | 497 kts | 9° |
| 2026-05-06 16:17 | 45.29529 | 9.04516 | 31630 ft | 496 kts | 9° |
| 2026-05-06 16:17 | 45.32934 | 9.05297 | 32235 ft | 495 kts | 9° |
| 2026-05-06 16:17 | 45.36329 | 9.06076 | 32808 ft | 494 kts | 9° |
| 2026-05-06 16:18 | 45.39721 | 9.06854 | 33363 ft | 493 kts | 9° |
| 2026-05-06 16:18 | 45.43108 | 9.07632 | 33903 ft | 492 kts | 9° |
| 2026-05-06 16:18 | 45.46483 | 9.08407 | 34412 ft | 491 kts | 9° |
| 2026-05-06 16:18 | 45.49853 | 9.09182 | 34904 ft | 490 kts | 9° |
| 2026-05-06 16:19 | 45.53216 | 9.09956 | 35377 ft | 489 kts | 9° |
| 2026-05-06 16:19 | 45.56577 | 9.10730 | 35816 ft | 488 kts | 9° |
| 2026-05-06 16:19 | 45.59923 | 9.11502 | 36231 ft | 488 kts | 9° |
| 2026-05-06 16:19 | 45.63295 | 9.12109 | 36603 ft | 488 kts | 3° |
| 2026-05-06 16:20 | 45.66691 | 9.12096 | 36949 ft | 488 kts | 355° |
| 2026-05-06 16:20 | 45.70071 | 9.11717 | 37287 ft | 488 kts | 354° |
| 2026-05-06 16:20 | 45.73454 | 9.11235 | 37622 ft | 488 kts | 353° |
| 2026-05-06 16:20 | 45.76835 | 9.10697 | 37930 ft | 489 kts | 353° |
| 2026-05-06 16:21 | 45.80169 | 9.10142 | 38245 ft | 489 kts | 353° |
| 2026-05-06 16:21 | 45.83546 | 9.09575 | 38549 ft | 489 kts | 353° |
| 2026-05-06 16:21 | 45.86891 | 9.09059 | 38850 ft | 480 kts | 354° |
| 2026-05-06 16:21 | 45.90161 | 9.08542 | 39665 ft | 466 kts | 352° |
| 2026-05-06 16:22 | 45.93380 | 9.07984 | 40000 ft | 467 kts | 353° |
| 2026-05-06 16:22 | 45.96625 | 9.07434 | 40002 ft | 473 kts | 353° |
| 2026-05-06 16:22 | 46.03248 | 9.06340 | 40002 ft | 485 kts | 353° |
| 2026-05-06 16:23 | 46.10041 | 9.05238 | 39999 ft | 497 kts | 353° |
| 2026-05-06 16:23 | 46.16978 | 9.04115 | 40002 ft | 506 kts | 353° |
| 2026-05-06 16:24 | 46.23995 | 9.03131 | 40002 ft | 505 kts | 354° |
| 2026-05-06 16:24 | 46.31006 | 9.02237 | 39996 ft | 507 kts | 354° |
| 2026-05-06 16:25 | 46.38086 | 9.01315 | 40000 ft | 514 kts | 354° |
| 2026-05-06 16:25 | 46.45202 | 9.00364 | 39998 ft | 513 kts | 354° |
| 2026-05-06 16:26 | 46.52353 | 8.99401 | 40001 ft | 517 kts | 354° |
| 2026-05-06 16:26 | 46.59518 | 8.98433 | 40003 ft | 517 kts | 354° |
| 2026-05-06 16:27 | 46.66702 | 8.97460 | 40000 ft | 518 kts | 354° |
| 2026-05-06 16:27 | 46.73846 | 8.96491 | 40002 ft | 514 kts | 354° |
| 2026-05-06 16:28 | 46.80924 | 8.95528 | 39999 ft | 516 kts | 354° |
| 2026-05-06 16:28 | 46.88085 | 8.94552 | 39999 ft | 517 kts | 354° |
| 2026-05-06 16:29 | 46.95242 | 8.93573 | 39998 ft | 516 kts | 354° |
| 2026-05-06 16:29 | 47.02402 | 8.92587 | 40002 ft | 515 kts | 354° |
| 2026-05-06 16:30 | 47.08189 | 8.90791 | 40004 ft | 511 kts | 340° |
| 2026-05-06 16:30 | 47.12485 | 8.87867 | 40002 ft | 509 kts | 328° |
| 2026-05-06 16:30 | 47.15347 | 8.84816 | 40001 ft | 508 kts | 318° |
| 2026-05-06 16:31 | 47.19805 | 8.76854 | 40002 ft | 505 kts | 299° |
| 2026-05-06 16:31 | 47.22219 | 8.67240 | 40002 ft | 502 kts | 281° |
| 2026-05-06 16:32 | 47.24287 | 8.57411 | 40000 ft | 504 kts | 289° |
| 2026-05-06 16:32 | 47.26632 | 8.47677 | 40001 ft | 505 kts | 290° |
| 2026-05-06 16:33 | 47.29055 | 8.37977 | 40001 ft | 504 kts | 290° |
| 2026-05-06 16:34 | 47.32699 | 8.23464 | 39999 ft | 504 kts | 290° |
| 2026-05-06 16:34 | 47.35106 | 8.13756 | 39998 ft | 504 kts | 290° |
| 2026-05-06 16:35 | 47.37501 | 8.04046 | 40000 ft | 503 kts | 290° |
| 2026-05-06 16:35 | 47.39889 | 7.94333 | 40000 ft | 504 kts | 290° |
| 2026-05-06 16:36 | 47.41869 | 7.86248 | 40000 ft | 505 kts | 290° |
| 2026-05-06 16:36 | 47.44633 | 7.74917 | 39999 ft | 504 kts | 289° |
| 2026-05-06 16:37 | 47.46854 | 7.65101 | 40000 ft | 504 kts | 285° |
| 2026-05-06 16:37 | 47.48613 | 7.55077 | 39998 ft | 503 kts | 284° |
| 2026-05-06 16:38 | 47.50284 | 7.45044 | 40000 ft | 503 kts | 283° |
| 2026-05-06 16:38 | 47.51940 | 7.34984 | 40002 ft | 503 kts | 283° |
| 2026-05-06 16:39 | 47.53593 | 7.24933 | 40001 ft | 501 kts | 283° |
| 2026-05-06 16:39 | 47.55215 | 7.15036 | 40001 ft | 491 kts | 283° |
| 2026-05-06 16:40 | 47.56813 | 7.05236 | 40000 ft | 489 kts | 283° |
| 2026-05-06 16:40 | 47.58399 | 6.95447 | 39999 ft | 489 kts | 283° |
| 2026-05-06 16:41 | 47.59977 | 6.85655 | 40002 ft | 489 kts | 283° |
| 2026-05-06 16:41 | 47.61546 | 6.75861 | 40003 ft | 489 kts | 283° |
| 2026-05-06 16:42 | 47.63108 | 6.66052 | 40000 ft | 489 kts | 283° |
| 2026-05-06 16:42 | 47.64661 | 6.56237 | 39998 ft | 489 kts | 283° |
| 2026-05-06 16:43 | 47.66204 | 6.46430 | 39999 ft | 488 kts | 283° |
| 2026-05-06 16:43 | 47.67481 | 6.38270 | 39998 ft | 488 kts | 283° |
| 2026-05-06 16:44 | 47.69010 | 6.28448 | 39998 ft | 488 kts | 283° |
| 2026-05-06 16:44 | 47.70904 | 6.18779 | 40003 ft | 488 kts | 288° |
| 2026-05-06 16:45 | 47.73063 | 6.09225 | 40000 ft | 488 kts | 288° |
| 2026-05-06 16:45 | 47.75173 | 5.99651 | 40000 ft | 488 kts | 288° |
| 2026-05-06 16:46 | 47.77216 | 5.90034 | 40000 ft | 488 kts | 287° |
| 2026-05-06 16:46 | 47.79228 | 5.80399 | 40001 ft | 488 kts | 287° |
| 2026-05-06 16:47 | 47.81231 | 5.70752 | 40000 ft | 488 kts | 287° |
| 2026-05-06 16:47 | 47.83230 | 5.61099 | 39999 ft | 488 kts | 287° |
| 2026-05-06 16:48 | 47.85221 | 5.51437 | 40000 ft | 488 kts | 287° |
| 2026-05-06 16:48 | 47.87206 | 5.41767 | 40003 ft | 489 kts | 287° |
| 2026-05-06 16:49 | 47.89193 | 5.32085 | 40000 ft | 489 kts | 288° |
| 2026-05-06 16:49 | 47.92123 | 5.23070 | 39998 ft | 488 kts | 304° |
| 2026-05-06 16:50 | 47.96437 | 5.15238 | 40000 ft | 489 kts | 311° |
| 2026-05-06 16:50 | 48.01003 | 5.07719 | 40002 ft | 489 kts | 312° |
| 2026-05-06 16:51 | 48.05599 | 5.00217 | 40000 ft | 489 kts | 312° |
| 2026-05-06 16:51 | 48.10166 | 4.92687 | 40002 ft | 488 kts | 312° |
| 2026-05-06 16:52 | 48.14710 | 4.85133 | 40001 ft | 488 kts | 311° |
| 2026-05-06 16:52 | 48.19245 | 4.77563 | 39999 ft | 488 kts | 311° |
| 2026-05-06 16:53 | 48.23778 | 4.69976 | 40001 ft | 488 kts | 311° |
| 2026-05-06 16:53 | 48.28302 | 4.62386 | 40000 ft | 488 kts | 311° |
| 2026-05-06 16:54 | 48.32824 | 4.54786 | 40003 ft | 488 kts | 311° |
| 2026-05-06 16:54 | 48.37333 | 4.47169 | 40000 ft | 487 kts | 311° |
| 2026-05-06 16:55 | 48.41835 | 4.39544 | 40002 ft | 487 kts | 311° |
| 2026-05-06 16:55 | 48.46334 | 4.31905 | 40000 ft | 487 kts | 311° |
| 2026-05-06 16:56 | 48.50826 | 4.24256 | 40000 ft | 487 kts | 311° |
| 2026-05-06 16:56 | 48.55307 | 4.16607 | 39999 ft | 487 kts | 311° |
| 2026-05-06 16:57 | 48.59789 | 4.08932 | 39999 ft | 487 kts | 311° |
| 2026-05-06 16:57 | 48.64265 | 4.01245 | 39999 ft | 487 kts | 311° |
| 2026-05-06 16:58 | 48.68734 | 3.93547 | 40001 ft | 487 kts | 311° |
| 2026-05-06 16:58 | 48.73207 | 3.85829 | 39998 ft | 487 kts | 311° |
| 2026-05-06 16:59 | 48.77930 | 3.78566 | 40001 ft | 488 kts | 316° |
| 2026-05-06 16:59 | 48.82891 | 3.71430 | 40001 ft | 488 kts | 316° |
| 2026-05-06 17:00 | 48.87746 | 3.64335 | 40001 ft | 488 kts | 315° |
| 2026-05-06 17:00 | 48.92591 | 3.57113 | 40000 ft | 488 kts | 315° |
| 2026-05-06 17:01 | 48.97422 | 3.49848 | 40002 ft | 488 kts | 315° |
| 2026-05-06 17:01 | 49.02241 | 3.42579 | 39999 ft | 488 kts | 315° |
| 2026-05-06 17:02 | 49.07061 | 3.35293 | 40000 ft | 488 kts | 315° |
| 2026-05-06 17:02 | 49.11873 | 3.28001 | 39999 ft | 488 kts | 315° |
| 2026-05-06 17:03 | 49.16677 | 3.20700 | 39998 ft | 488 kts | 315° |
| 2026-05-06 17:03 | 49.21486 | 3.13370 | 39999 ft | 487 kts | 315° |
| 2026-05-06 17:04 | 49.26285 | 3.06036 | 39999 ft | 487 kts | 315° |
| 2026-05-06 17:04 | 49.31079 | 2.98686 | 39999 ft | 488 kts | 315° |
| 2026-05-06 17:05 | 49.35866 | 2.91326 | 40000 ft | 487 kts | 315° |
| 2026-05-06 17:05 | 49.40647 | 2.83953 | 40000 ft | 487 kts | 314° |
| 2026-05-06 17:06 | 49.45421 | 2.76570 | 39999 ft | 487 kts | 314° |
| 2026-05-06 17:06 | 49.50191 | 2.69171 | 40002 ft | 487 kts | 314° |
| 2026-05-06 17:07 | 49.54959 | 2.61754 | 39997 ft | 487 kts | 314° |
| 2026-05-06 17:07 | 49.59720 | 2.54326 | 39998 ft | 487 kts | 314° |
| 2026-05-06 17:08 | 49.64335 | 2.46672 | 40000 ft | 487 kts | 310° |
| 2026-05-06 17:08 | 49.68639 | 2.38635 | 39956 ft | 485 kts | 309° |
| 2026-05-06 17:09 | 49.72941 | 2.30563 | 39732 ft | 487 kts | 309° |
| 2026-05-06 17:09 | 49.75110 | 2.26546 | 39488 ft | 487 kts | 310° |
| 2026-05-06 17:09 | 49.77292 | 2.22532 | 39234 ft | 487 kts | 310° |
| 2026-05-06 17:09 | 49.79448 | 2.18577 | 38978 ft | 487 kts | 310° |
| 2026-05-06 17:10 | 49.81635 | 2.14567 | 38736 ft | 487 kts | 310° |
| 2026-05-06 17:10 | 49.83819 | 2.10559 | 38480 ft | 487 kts | 310° |
| 2026-05-06 17:10 | 49.86002 | 2.06546 | 38223 ft | 487 kts | 310° |
| 2026-05-06 17:10 | 49.88183 | 2.02528 | 37985 ft | 487 kts | 310° |
| 2026-05-06 17:11 | 49.90363 | 1.98506 | 37746 ft | 487 kts | 310° |
| 2026-05-06 17:11 | 49.92543 | 1.94475 | 37484 ft | 487 kts | 310° |
| 2026-05-06 17:11 | 49.94720 | 1.90444 | 37229 ft | 487 kts | 310° |
| 2026-05-06 17:11 | 49.96893 | 1.86413 | 36984 ft | 487 kts | 310° |
| 2026-05-06 17:12 | 49.99057 | 1.82392 | 36499 ft | 483 kts | 309° |
| 2026-05-06 17:12 | 50.01206 | 1.78393 | 35834 ft | 482 kts | 309° |
| 2026-05-06 17:12 | 50.03356 | 1.74386 | 35119 ft | 482 kts | 309° |
| 2026-05-06 17:12 | 50.05506 | 1.70375 | 34350 ft | 484 kts | 309° |
| 2026-05-06 17:13 | 50.07832 | 1.66595 | 33561 ft | 485 kts | 317° |
| 2026-05-06 17:13 | 50.10346 | 1.63077 | 32730 ft | 486 kts | 318° |
| 2026-05-06 17:13 | 50.12889 | 1.59591 | 31883 ft | 487 kts | 319° |
| 2026-05-06 17:13 | 50.15442 | 1.56106 | 30998 ft | 489 kts | 319° |
| 2026-05-06 17:14 | 50.18012 | 1.52603 | 30087 ft | 490 kts | 319° |
| 2026-05-06 17:14 | 50.20580 | 1.49100 | 29160 ft | 492 kts | 319° |
| 2026-05-06 17:14 | 50.23155 | 1.45585 | 28392 ft | 489 kts | 319° |
| 2026-05-06 17:14 | 50.25705 | 1.42100 | 27754 ft | 484 kts | 319° |
| 2026-05-06 17:15 | 50.28223 | 1.38655 | 27094 ft | 479 kts | 319° |
| 2026-05-06 17:15 | 50.30719 | 1.35236 | 26455 ft | 475 kts | 319° |
| 2026-05-06 17:15 | 50.33188 | 1.31847 | 25825 ft | 470 kts | 319° |
| 2026-05-06 17:15 | 50.35605 | 1.28526 | 25169 ft | 466 kts | 318° |
| 2026-05-06 17:16 | 50.38026 | 1.25195 | 24536 ft | 461 kts | 318° |
| 2026-05-06 17:16 | 50.40419 | 1.21897 | 23909 ft | 456 kts | 318° |
| 2026-05-06 17:16 | 50.42786 | 1.18631 | 23263 ft | 451 kts | 318° |
| 2026-05-06 17:16 | 50.45156 | 1.15356 | 22651 ft | 446 kts | 318° |
| 2026-05-06 17:17 | 50.47440 | 1.12195 | 22038 ft | 442 kts | 318° |
| 2026-05-06 17:17 | 50.49731 | 1.09021 | 21413 ft | 437 kts | 318° |
| 2026-05-06 17:17 | 50.51945 | 1.05775 | 20777 ft | 433 kts | 314° |
| 2026-05-06 17:17 | 50.54017 | 1.02363 | 20198 ft | 429 kts | 313° |
| 2026-05-06 17:18 | 50.56042 | 0.98949 | 19581 ft | 425 kts | 313° |
| 2026-05-06 17:18 | 50.58044 | 0.95562 | 18957 ft | 421 kts | 313° |
| 2026-05-06 17:18 | 50.60032 | 0.92200 | 18332 ft | 418 kts | 313° |
| 2026-05-06 17:18 | 50.62001 | 0.88867 | 17726 ft | 414 kts | 313° |
| 2026-05-06 17:19 | 50.63951 | 0.85563 | 17096 ft | 410 kts | 313° |
| 2026-05-06 17:19 | 50.65886 | 0.82281 | 16472 ft | 406 kts | 313° |
| 2026-05-06 17:19 | 50.67799 | 0.79033 | 15852 ft | 403 kts | 313° |
| 2026-05-06 17:19 | 50.69609 | 0.75685 | 15279 ft | 401 kts | 308° |
| 2026-05-06 17:20 | 50.71332 | 0.72232 | 14700 ft | 400 kts | 308° |
| 2026-05-06 17:20 | 50.73046 | 0.68794 | 14117 ft | 397 kts | 308° |
| 2026-05-06 17:20 | 50.74754 | 0.65394 | 13550 ft | 393 kts | 308° |
| 2026-05-06 17:20 | 50.76452 | 0.62031 | 13005 ft | 390 kts | 308° |
| 2026-05-06 17:21 | 50.78111 | 0.58754 | 12742 ft | 374 kts | 308° |
| 2026-05-06 17:21 | 50.79708 | 0.55602 | 12513 ft | 360 kts | 308° |
| 2026-05-06 17:21 | 50.81241 | 0.52576 | 12296 ft | 346 kts | 308° |
| 2026-05-06 17:21 | 50.82715 | 0.49670 | 12099 ft | 332 kts | 309° |
| 2026-05-06 17:22 | 50.84133 | 0.46876 | 11921 ft | 319 kts | 308° |
| 2026-05-06 17:22 | 50.85489 | 0.44190 | 11736 ft | 307 kts | 308° |
| 2026-05-06 17:22 | 50.86798 | 0.41595 | 11507 ft | 297 kts | 308° |
| 2026-05-06 17:22 | 50.88082 | 0.39049 | 11019 ft | 297 kts | 308° |
| 2026-05-06 17:23 | 50.89381 | 0.36469 | 10394 ft | 302 kts | 308° |
| 2026-05-06 17:23 | 50.90699 | 0.33853 | 9763 ft | 306 kts | 308° |
| 2026-05-06 17:23 | 50.92033 | 0.31202 | 9135 ft | 309 kts | 308° |
| 2026-05-06 17:23 | 50.93337 | 0.28492 | 8499 ft | 310 kts | 302° |
| 2026-05-06 17:24 | 50.94181 | 0.25358 | 7878 ft | 310 kts | 284° |
| 2026-05-06 17:24 | 50.94661 | 0.22025 | 7308 ft | 309 kts | 281° |
| 2026-05-06 17:24 | 50.95077 | 0.18728 | 7040 ft | 298 kts | 281° |
| 2026-05-06 17:24 | 50.95471 | 0.15570 | 6776 ft | 288 kts | 281° |
| 2026-05-06 17:25 | 50.95857 | 0.12465 | 6301 ft | 287 kts | 281° |
| 2026-05-06 17:25 | 50.96238 | 0.09397 | 6032 ft | 278 kts | 281° |
| 2026-05-06 17:25 | 50.96603 | 0.06451 | 5687 ft | 266 kts | 281° |
| 2026-05-06 17:25 | 50.96948 | 0.03671 | 5253 ft | 254 kts | 281° |
| 2026-05-06 17:26 | 50.97276 | 0.01021 | 5044 ft | 237 kts | 281° |
| 2026-05-06 17:26 | 50.97592 | -0.01526 | 4863 ft | 235 kts | 281° |
| 2026-05-06 17:26 | 50.97906 | -0.04063 | 4312 ft | 234 kts | 281° |
| 2026-05-06 17:26 | 50.98225 | -0.06637 | 3568 ft | 240 kts | 281° |
| 2026-05-06 17:27 | 50.98542 | -0.09198 | 3149 ft | 231 kts | 281° |
| 2026-05-06 17:27 | 50.98848 | -0.11674 | 3040 ft | 229 kts | 281° |
| 2026-05-06 17:27 | 50.99153 | -0.14154 | 3024 ft | 229 kts | 281° |
| 2026-05-06 17:27 | 50.99458 | -0.16630 | 3030 ft | 229 kts | 281° |
| 2026-05-06 17:28 | 50.99763 | -0.19104 | 3026 ft | 228 kts | 281° |
| 2026-05-06 17:28 | 51.00066 | -0.21575 | 3026 ft | 228 kts | 281° |
| 2026-05-06 17:28 | 51.00371 | -0.24054 | 3027 ft | 228 kts | 281° |
| 2026-05-06 17:28 | 51.00675 | -0.26535 | 3031 ft | 229 kts | 281° |
| 2026-05-06 17:29 | 51.00877 | -0.28176 | 3030 ft | 229 kts | 281° |
| 2026-05-06 17:29 | 51.01282 | -0.31476 | 3030 ft | 228 kts | 281° |
| 2026-05-06 17:29 | 51.01584 | -0.33949 | 3028 ft | 228 kts | 281° |
| 2026-05-06 17:29 | 51.01887 | -0.36425 | 3027 ft | 228 kts | 281° |
| 2026-05-06 17:30 | 51.02190 | -0.38899 | 3027 ft | 228 kts | 281° |
| 2026-05-06 17:30 | 51.02433 | -0.40520 | 3026 ft | 228 kts | 288° |
| 2026-05-06 17:30 | 51.03319 | -0.42578 | 3031 ft | 228 kts | 320° |
| 2026-05-06 17:30 | 51.04676 | -0.43877 | 3031 ft | 228 kts | 334° |
| 2026-05-06 17:31 | 51.06091 | -0.44906 | 3026 ft | 215 kts | 335° |
| 2026-05-06 17:31 | 51.07410 | -0.45828 | 3027 ft | 199 kts | 336° |
| 2026-05-06 17:31 | 51.08636 | -0.46680 | 3034 ft | 189 kts | 336° |
| 2026-05-06 17:31 | 51.09835 | -0.47513 | 3029 ft | 188 kts | 336° |
| 2026-05-06 17:32 | 51.11085 | -0.48094 | 3021 ft | 190 kts | 359° |
| 2026-05-06 17:32 | 51.12313 | -0.47475 | 3029 ft | 188 kts | 37° |
| 2026-05-06 17:32 | 51.13037 | -0.45782 | 3026 ft | 189 kts | 76° |
| 2026-05-06 17:32 | 51.13082 | -0.43709 | 3038 ft | 189 kts | 97° |
| 2026-05-06 17:33 | 51.12890 | -0.41631 | 3023 ft | 190 kts | 98° |
| 2026-05-06 17:33 | 51.13130 | -0.39584 | 3041 ft | 190 kts | 63° |
| 2026-05-06 17:33 | 51.13645 | -0.37658 | 3018 ft | 189 kts | 77° |
| 2026-05-06 17:33 | 51.13585 | -0.35647 | 3028 ft | 175 kts | 105° |
| 2026-05-06 17:34 | 51.13257 | -0.33861 | 2876 ft | 163 kts | 105° |
| 2026-05-06 17:34 | 51.13105 | -0.32102 | 2467 ft | 163 kts | 90° |
| 2026-05-06 17:34 | 51.13219 | -0.30303 | 2107 ft | 163 kts | 80° |
| 2026-05-06 17:34 | 51.13427 | -0.28579 | 2036 ft | 157 kts | 78° |
| 2026-05-06 17:35 | 51.13651 | -0.26876 | 2031 ft | 157 kts | 78° |
| 2026-05-06 17:35 | 51.13877 | -0.25174 | 2034 ft | 157 kts | 78° |
| 2026-05-06 17:35 | 51.14103 | -0.23473 | 2028 ft | 157 kts | 78° |
| 2026-05-06 17:36 | 51.14551 | -0.20098 | 2015 ft | 157 kts | 78° |
| 2026-05-06 17:36 | 51.14777 | -0.18397 | 2021 ft | 157 kts | 78° |
| 2026-05-06 17:36 | 51.15003 | -0.16700 | 2031 ft | 157 kts | 78° |
| 2026-05-06 17:36 | 51.15229 | -0.14999 | 2033 ft | 157 kts | 78° |
| 2026-05-06 17:37 | 51.15448 | -0.13297 | 2014 ft | 157 kts | 79° |
| 2026-05-06 17:37 | 51.15287 | -0.11603 | 2040 ft | 161 kts | 120° |
| 2026-05-06 17:37 | 51.14433 | -0.10251 | 2038 ft | 191 kts | 145° |
| 2026-05-06 17:37 | 51.13195 | -0.09028 | 1944 ft | 224 kts | 150° |
| 2026-05-06 17:38 | 51.11817 | -0.07775 | 1981 ft | 231 kts | 151° |
| 2026-05-06 17:38 | 51.10424 | -0.06522 | 2030 ft | 229 kts | 151° |
| 2026-05-06 17:38 | 51.09037 | -0.05277 | 2034 ft | 228 kts | 151° |
| 2026-05-06 17:38 | 51.07656 | -0.04037 | 2049 ft | 227 kts | 151° |
| 2026-05-06 17:39 | 51.06277 | -0.02799 | 2360 ft | 229 kts | 151° |
| 2026-05-06 17:39 | 51.04888 | -0.01551 | 2797 ft | 230 kts | 151° |
| 2026-05-06 17:39 | 51.03497 | -0.00304 | 3008 ft | 230 kts | 151° |
| 2026-05-06 17:39 | 51.02104 | 0.00944 | 3030 ft | 230 kts | 151° |
| 2026-05-06 17:40 | 51.00681 | 0.02136 | 3030 ft | 231 kts | 158° |
| 2026-05-06 17:40 | 50.99110 | 0.02412 | 3031 ft | 229 kts | 191° |
| 2026-05-06 17:40 | 50.97693 | 0.01351 | 3029 ft | 227 kts | 222° |
| 2026-05-06 17:40 | 50.96850 | -0.00729 | 3027 ft | 227 kts | 254° |
| 2026-05-06 17:41 | 50.96719 | -0.03208 | 3031 ft | 227 kts | 273° |
| 2026-05-06 17:41 | 50.96846 | -0.05712 | 3025 ft | 228 kts | 276° |
| 2026-05-06 17:41 | 50.97009 | -0.08214 | 3028 ft | 228 kts | 276° |
| 2026-05-06 17:41 | 50.97176 | -0.10725 | 3026 ft | 229 kts | 276° |
| 2026-05-06 17:42 | 50.97344 | -0.13240 | 3025 ft | 229 kts | 276° |
| 2026-05-06 17:42 | 50.97510 | -0.15752 | 3028 ft | 229 kts | 276° |
| 2026-05-06 17:42 | 50.97678 | -0.18267 | 3026 ft | 229 kts | 276° |
| 2026-05-06 17:42 | 50.97844 | -0.20782 | 3025 ft | 229 kts | 276° |
| 2026-05-06 17:43 | 50.98011 | -0.23293 | 3026 ft | 229 kts | 276° |
| 2026-05-06 17:43 | 50.98320 | -0.25776 | 3030 ft | 229 kts | 288° |
| 2026-05-06 17:43 | 50.98852 | -0.28157 | 3028 ft | 229 kts | 290° |
| 2026-05-06 17:43 | 50.99422 | -0.30520 | 3028 ft | 229 kts | 291° |
| 2026-05-06 17:44 | 50.99995 | -0.32880 | 3026 ft | 229 kts | 291° |
| 2026-05-06 17:44 | 51.00568 | -0.35241 | 3028 ft | 229 kts | 291° |
| 2026-05-06 17:44 | 51.01136 | -0.37567 | 3118 ft | 231 kts | 290° |
| 2026-05-06 17:44 | 51.01688 | -0.39952 | 3015 ft | 227 kts | 291° |
| 2026-05-06 17:45 | 51.02196 | -0.42319 | 3006 ft | 226 kts | 290° |
| 2026-05-06 17:45 | 51.02896 | -0.44515 | 2996 ft | 223 kts | 313° |
| 2026-05-06 17:45 | 51.04084 | -0.46050 | 2997 ft | 220 kts | 329° |
| 2026-05-06 17:45 | 51.05378 | -0.47316 | 2995 ft | 215 kts | 330° |
| 2026-05-06 17:46 | 51.06612 | -0.48481 | 3017 ft | 197 kts | 331° |
| 2026-05-06 17:46 | 51.07780 | -0.49416 | 3007 ft | 180 kts | 346° |
| 2026-05-06 17:46 | 51.08987 | -0.49238 | 3023 ft | 177 kts | 24° |
| 2026-05-06 17:46 | 51.09993 | -0.48143 | 2963 ft | 171 kts | 39° |
| 2026-05-06 17:47 | 51.10881 | -0.46878 | 2913 ft | 175 kts | 41° |
| 2026-05-06 17:47 | 51.11599 | -0.45288 | 2904 ft | 182 kts | 66° |
| 2026-05-06 17:47 | 51.11917 | -0.43334 | 2898 ft | 183 kts | 76° |
| 2026-05-06 17:47 | 51.12127 | -0.41379 | 2877 ft | 171 kts | 78° |
| 2026-05-06 17:48 | 51.12300 | -0.39573 | 2690 ft | 160 kts | 78° |
| 2026-05-06 17:48 | 51.12438 | -0.37820 | 2374 ft | 159 kts | 79° |
| 2026-05-06 17:48 | 51.12527 | -0.36067 | 2215 ft | 160 kts | 76° |
| 2026-05-06 17:48 | 51.12799 | -0.34395 | 2017 ft | 154 kts | 72° |
| 2026-05-06 17:49 | 51.12995 | -0.32716 | 1790 ft | 155 kts | 78° |
| 2026-05-06 17:49 | 51.13174 | -0.31044 | 1592 ft | 153 kts | 75° |
| 2026-05-06 17:49 | 51.13391 | -0.29423 | 1377 ft | 145 kts | 74° |
| 2026-05-06 17:49 | 51.13581 | -0.27906 | 1176 ft | 135 kts | 76° |
| 2026-05-06 17:50 | 51.13787 | -0.26473 | 1007 ft | 131 kts | 72° |
| 2026-05-06 17:50 | 51.13982 | -0.25065 | 818 ft | 129 kts | 72° |
| 2026-05-06 17:50 | 51.14163 | -0.23657 | 765 ft | 142 kts | 71° |
| 2026-05-06 17:50 | 51.14391 | -0.22099 | 463 ft | 142 kts | 74° |
| 2026-05-06 17:51 | 51.14598 | -0.20601 | 270 ft | 134 kts | 75° |
| 2026-05-06 17:51 | 51.14789 | -0.19229 | 223 ft | 114 kts | 77° |
| 2026-05-06 17:51 | 51.14906 | -0.18384 | 219 ft | 33 kts | 78° |
| 2026-05-06 17:51 | 51.14919 | -0.18293 | 217 ft | 7 kts | 78° |
| 2026-05-06 17:52 | 51.14939 | -0.18157 | 224 ft | 17 kts | 74° |
| 2026-05-06 17:52 | 51.14995 | -0.17939 | 226 ft | 24 kts | 60° |
| 2026-05-06 17:52 | 51.15043 | -0.17828 | 224 ft | 2 kts | 49° |
| 2026-05-06 17:52 | 51.15081 | -0.17783 | 220 ft | 0 kts | 27° |
| 2026-05-06 17:53 | 51.15114 | -0.17768 | 212 ft | 0 kts | 3° |
| 2026-05-06 17:53 | 51.15143 | -0.17769 | 217 ft | 10 kts | 356° |
| 2026-05-06 17:53 | 51.15221 | -0.17768 | 219 ft | 15 kts | 21° |
| 2026-05-06 17:54 | 51.15281 | -0.17599 | 214 ft | 22 kts | 77° |
| 2026-05-06 17:54 | 51.15294 | -0.17491 | 216 ft | 0 kts | 79° |
| 2026-05-06 17:54 | 51.15297 | -0.17466 | 218 ft | 0 kts | 79° |
| 2026-05-06 17:54 | 51.15298 | -0.17460 | 219 ft | 0 kts | 79° |
| 2026-05-06 17:55 | 51.15299 | -0.17445 | 218 ft | 2 kts | 80° |
| 2026-05-06 17:59 | 51.15300 | -0.17443 | 218 ft | 2 kts | 80° |
| 2026-05-06 17:59 | 51.15307 | -0.17355 | 217 ft | 13 kts | 83° |
| 2026-05-06 17:59 | 51.15343 | -0.17272 | 220 ft | 1 kts | 26° |
| 2026-05-06 18:00 | 51.15363 | -0.17259 | 222 ft | 5 kts | 22° |
| 2026-05-06 18:00 | 51.15404 | -0.17225 | 221 ft | 8 kts | 31° |
| 2026-05-06 18:00 | 51.15449 | -0.17180 | 221 ft | 1 kts | 32° |
| 2026-05-06 18:00 | 51.15455 | -0.17173 | 222 ft | 2 kts | 36° |
| 2026-05-06 18:01 | 51.15458 | -0.17169 | 222 ft | 0 kts | 36° |
| 2026-05-06 18:02 | 51.15459 | -0.17168 | 222 ft | 0 kts | 36° |